Time;durP1;ratioP1;P1;durP2;ratioP2;P2;SDS_P1;SDS_P2;PMS_P1;PMS_P2;Temp;Humidity;BMP_temperature;BMP_pressure;BME280_temperature;BME280_humidity;BME280_pressure;Samples;Min_cycle;Max_cycle;Signal;HPM_P1;HPM_P2
2022/04/17 00:00:26;;;;;;;16.70;7.63;;;;;;;8.14;42.50;101329.56;5006646;28;20025;-83
2022/04/17 00:02:52;;;;;;;10.75;6.18;;;;;;;8.06;42.37;101328.72;4993629;28;20072;-82
2022/04/17 00:05:18;;;;;;;13.27;6.80;;;;;;;8.23;41.87;101328.31;5006989;28;20046;-83
2022/04/17 00:07:44;;;;;;;12.82;6.80;;;;;;;8.37;41.79;101323.69;5015740;28;20017;-84
2022/04/17 00:10:09;;;;;;;10.60;5.15;;;;;;;8.33;41.66;101327.03;5025629;28;20552;-84
2022/04/17 00:12:35;;;;;;;9.55;5.50;;;;;;;8.31;41.58;101329.13;5005571;28;20030;-83
2022/04/17 00:15:02;;;;;;;12.70;7.22;;;;;;;8.38;41.44;101324.53;4989102;28;20030;-82
2022/04/17 00:17:28;;;;;;;12.20;6.50;;;;;;;8.16;42.23;101327.47;5006577;28;20030;-82
2022/04/17 00:19:53;;;;;;;14.13;6.37;;;;;;;8.20;41.72;101317.03;5005551;28;20022;-83
2022/04/17 00:22:18;;;;;;;14.03;5.80;;;;;;;8.12;42.29;101309.91;5006252;28;20290;-82
2022/04/17 00:24:44;;;;;;;11.27;6.35;;;;;;;8.11;42.23;101324.56;5005165;28;20271;-84
2022/04/17 00:27:09;;;;;;;9.35;6.25;;;;;;;8.13;42.24;101306.16;5006557;28;20060;-83
2022/04/17 00:29:35;;;;;;;9.38;5.22;;;;;;;8.14;42.05;101315.97;5004861;28;20022;-83
2022/04/17 00:32:00;;;;;;;12.60;6.28;;;;;;;7.98;42.34;101309.09;5015651;28;20769;-82
2022/04/17 00:34:26;;;;;;;10.70;5.63;;;;;;;8.16;42.09;101300.28;5006286;28;20476;-84
2022/04/17 00:36:52;;;;;;;12.68;6.47;;;;;;;8.09;42.59;101310.34;5005976;28;20057;-82
2022/04/17 00:39:18;;;;;;;14.68;6.75;;;;;;;8.01;42.44;101300.53;5007519;28;20453;-83
2022/04/17 00:41:46;;;;;;;11.73;5.82;;;;;;;8.04;42.20;101303.66;5018140;28;20025;-83
2022/04/17 00:44:26;;;;;;;11.65;6.50;;;;;;;8.13;42.54;101303.44;5026482;28;20087;-83
2022/04/17 00:46:51;;;;;;;10.52;5.57;;;;;;;7.98;42.94;101304.50;5023894;28;20427;-83
2022/04/17 00:49:17;;;;;;;11.85;5.32;;;;;;;7.90;42.63;101300.13;5025823;28;20037;-83
2022/04/17 00:51:45;;;;;;;11.32;5.60;;;;;;;7.98;43.04;101293.63;5009971;28;20037;-83
2022/04/17 00:54:12;;;;;;;9.90;5.03;;;;;;;7.96;42.57;101306.59;5004921;28;20703;-83
2022/04/17 00:56:38;;;;;;;10.88;5.55;;;;;;;7.92;42.75;101295.31;5005922;28;20469;-83
2022/04/17 00:59:06;;;;;;;11.05;5.63;;;;;;;8.16;42.57;101290.28;5004395;28;20041;-83
2022/04/17 01:01:34;;;;;;;9.68;6.25;;;;;;;7.94;42.78;101292.38;5015190;28;20389;-83
2022/04/17 01:04:00;;;;;;;11.10;6.65;;;;;;;7.83;43.26;101286.53;5003866;28;20046;-83
2022/04/17 01:06:26;;;;;;;13.18;5.65;;;;;;;7.84;43.37;101290.09;4988192;28;20030;-83
2022/04/17 01:08:52;;;;;;;10.00;5.30;;;;;;;7.88;42.65;101288.63;5024046;28;20025;-83
2022/04/17 01:11:18;;;;;;;9.13;4.43;;;;;;;7.82;42.66;101290.31;5024285;28;20035;-82
2022/04/17 01:13:43;;;;;;;10.57;4.30;;;;;;;7.75;43.41;101285.91;5025665;28;20033;-83
2022/04/17 01:16:10;;;;;;;9.13;5.47;;;;;;;7.74;43.01;101282.34;5023695;28;20076;-83
2022/04/17 01:18:55;;;;;;;10.55;5.25;;;;;;;7.66;42.90;101279.84;5025372;28;20575;-84
2022/04/17 01:21:22;;;;;;;8.27;4.07;;;;;;;7.64;43.14;101282.78;5012567;28;20060;-83
2022/04/17 01:29:16;;;;;;;8.35;4.85;;;;;;;7.98;42.04;101282.78;5004036;28;20045;-83
2022/04/17 01:31:42;;;;;;;9.32;5.13;;;;;;;8.04;42.33;101281.94;5013656;28;20053;-82
2022/04/17 01:34:07;;;;;;;7.78;4.55;;;;;;;7.95;42.14;101275.06;5003673;28;20049;-83
2022/04/17 01:36:33;;;;;;;7.90;4.18;;;;;;;8.01;42.64;101270.66;5005406;28;20058;-82
2022/04/17 01:38:58;;;;;;;10.45;4.57;;;;;;;7.90;43.11;101272.97;5002791;28;20564;-83
2022/04/17 01:41:23;;;;;;;9.90;4.53;;;;;;;7.71;43.14;101274.63;5004719;28;20038;-83
2022/04/17 01:43:49;;;;;;;9.45;4.45;;;;;;;7.66;43.24;101277.13;5005382;28;20361;-83
2022/04/17 01:46:14;;;;;;;9.65;4.07;;;;;;;7.65;42.88;101268.16;5003661;28;20040;-84
2022/04/17 01:48:39;;;;;;;7.25;4.25;;;;;;;7.63;43.42;101272.94;5005463;28;20117;-83
2022/04/17 01:51:05;;;;;;;8.30;4.40;;;;;;;7.78;43.36;101271.91;5011833;28;20116;-83
2022/04/17 01:53:30;;;;;;;11.50;5.75;;;;;;;7.74;43.37;101279.66;5025115;28;20022;-83
2022/04/17 01:55:59;;;;;;;9.13;4.50;;;;;;;7.70;43.03;101275.66;5023470;28;20029;-83
2022/04/17 01:58:24;;;;;;;8.65;3.95;;;;;;;7.71;43.59;101282.75;5007269;28;20108;-83
2022/04/17 02:00:50;;;;;;;7.18;3.30;;;;;;;7.83;43.93;101285.72;5023787;28;20037;-84
2022/04/17 02:03:15;;;;;;;9.82;4.13;;;;;;;7.88;43.18;101272.34;5006782;28;20018;-82
2022/04/17 02:05:40;;;;;;;10.00;3.67;;;;;;;7.70;43.54;101267.53;5004716;28;20049;-83
2022/04/17 02:08:06;;;;;;;7.07;4.00;;;;;;;7.74;43.33;101268.78;5016447;28;20469;-82
2022/04/17 02:10:31;;;;;;;9.40;3.95;;;;;;;7.89;43.09;101273.16;5020551;28;20337;-82
2022/04/17 02:12:56;;;;;;;5.65;3.05;;;;;;;7.89;43.64;101263.13;5003338;28;20110;-83
2022/04/17 02:15:22;;;;;;;10.63;4.43;;;;;;;7.64;43.60;101266.50;5004972;28;20127;-83
2022/04/17 02:17:47;;;;;;;7.63;3.90;;;;;;;7.61;43.50;101261.47;5003670;28;20271;-83
2022/04/17 02:20:12;;;;;;;8.33;4.70;;;;;;;7.67;43.07;101259.78;5003763;28;20276;-83
2022/04/17 02:22:39;;;;;;;24.83;4.65;;;;;;;7.64;43.56;101257.50;5004837;28;20827;-83
2022/04/17 02:25:04;;;;;;;8.95;3.63;;;;;;;7.84;43.50;101262.94;5003336;28;20042;-83
2022/04/17 02:27:30;;;;;;;6.28;3.13;;;;;;;7.67;43.48;101265.22;5004802;28;20068;-84
2022/04/17 02:29:55;;;;;;;6.07;3.05;;;;;;;7.67;43.17;101249.78;4985535;28;20087;-84
2022/04/17 02:32:20;;;;;;;7.43;3.07;;;;;;;7.67;43.55;101244.34;5003562;28;20026;-84
2022/04/17 02:34:45;;;;;;;8.00;3.33;;;;;;;7.53;43.70;101248.09;5003451;28;20282;-83
2022/04/17 02:37:11;;;;;;;11.03;4.87;;;;;;;7.51;43.96;101248.31;5004072;28;20030;-83
2022/04/17 02:39:37;;;;;;;5.07;2.70;;;;;;;7.63;43.22;101240.38;5004425;28;20351;-82
2022/04/17 02:42:03;;;;;;;12.07;4.60;;;;;;;7.77;43.08;101249.34;5004241;28;20310;-83
2022/04/17 02:44:28;;;;;;;9.07;3.38;;;;;;;7.83;42.93;101240.38;4990864;28;20025;-84
2022/04/17 02:49:37;;;;;;;9.70;3.38;;;;;;;8.06;42.41;101239.09;5008635;28;20254;-82
2022/04/17 02:52:04;;;;;;;7.37;3.57;;;;;;;8.13;42.42;101233.66;5022924;28;20286;-84
2022/04/17 02:54:30;;;;;;;6.60;2.63;;;;;;;8.06;43.05;101236.38;5028277;28;20630;-84
2022/04/17 02:56:55;;;;;;;8.77;4.50;;;;;;;7.90;42.55;101228.66;5027865;28;20029;-83
2022/04/17 02:59:20;;;;;;;9.27;3.65;;;;;;;7.66;43.66;101225.56;5026938;28;20380;-83
2022/04/17 03:07:13;;;;;;;7.10;3.33;;;;;;;7.92;43.28;101235.56;5014489;28;20041;-82
2022/04/17 03:09:39;;;;;;;5.50;3.33;;;;;;;7.97;43.30;101234.94;5027158;28;20108;-84
2022/04/17 03:12:04;;;;;;;8.73;4.18;;;;;;;7.82;43.57;101241.44;5026388;28;20088;-83
2022/04/17 03:14:30;;;;;;;8.27;3.60;;;;;;;7.81;43.46;101245.16;5027676;28;20027;-83
2022/04/17 03:16:56;;;;;;;8.23;4.00;;;;;;;7.81;43.69;101241.66;5025734;28;20100;-82
2022/04/17 03:22:05;;;;;;;5.75;3.38;;;;;;;8.03;44.11;101235.97;5006825;28;20752;-83
2022/04/17 03:24:33;;;;;;;6.72;4.20;;;;;;;7.91;43.76;101236.59;5007506;28;20046;-84
2022/04/17 03:26:59;;;;;;;6.82;3.25;;;;;;;7.93;44.83;101236.41;5007010;28;20026;-84
2022/04/17 03:29:24;;;;;;;4.95;2.60;;;;;;;7.75;44.12;101231.63;4988885;28;20040;-81
2022/04/17 03:31:49;;;;;;;6.00;3.63;;;;;;;7.88;45.83;101228.88;5016309;28;20030;-83
2022/04/17 03:34:15;;;;;;;7.82;4.05;;;;;;;7.80;44.83;101226.38;5006105;28;20267;-82
2022/04/17 03:36:41;;;;;;;6.07;2.47;;;;;;;7.80;45.76;101221.78;5007813;28;20022;-83
2022/04/17 03:39:07;;;;;;;7.25;3.13;;;;;;;7.75;46.07;101224.28;5005809;28;20465;-83
2022/04/17 03:41:32;;;;;;;8.30;3.95;;;;;;;7.81;45.42;101217.19;5019337;28;20041;-82
2022/04/17 03:43:58;;;;;;;6.85;2.83;;;;;;;7.47;45.58;101220.75;5026336;28;20029;-83
2022/04/17 03:46:23;;;;;;;6.40;3.30;;;;;;;7.54;46.18;101218.03;5026177;28;20384;-83
2022/04/17 03:48:48;;;;;;;5.30;3.10;;;;;;;7.60;46.71;101216.38;5027195;28;20468;-83
2022/04/17 03:51:13;;;;;;;7.67;3.30;;;;;;;7.56;45.74;101220.53;5025315;28;20029;-83
2022/04/17 03:53:39;;;;;;;8.50;3.03;;;;;;;7.68;46.21;101228.91;5026750;28;20265;-83
2022/04/17 03:56:04;;;;;;;7.55;2.97;;;;;;;7.72;47.43;101219.28;5024930;28;20021;-84
2022/04/17 03:58:30;;;;;;;11.13;3.78;;;;;;;7.47;45.44;101223.47;5009070;28;20028;-82
2022/04/17 04:00:55;;;;;;;7.88;3.13;;;;;;;7.44;45.73;101223.88;5006943;28;20045;-83
2022/04/17 04:03:21;;;;;;;11.55;4.90;;;;;;;7.29;46.15;101221.34;4991280;28;20060;-83
2022/04/17 04:05:46;;;;;;;10.00;3.25;;;;;;;7.47;45.82;101228.06;5006370;28;20062;-83
2022/04/17 04:08:12;;;;;;;8.83;3.40;;;;;;;7.33;45.87;101229.91;5020210;28;20025;-84
2022/04/17 04:10:50;;;;;;;5.10;2.80;;;;;;;7.62;45.63;101224.31;5025221;28;20271;-83
2022/04/17 04:13:15;;;;;;;5.95;3.00;;;;;;;7.70;46.40;101215.94;5025084;28;20373;-83
2022/04/17 04:15:41;;;;;;;5.95;3.70;;;;;;;7.71;46.72;101212.16;5026820;28;20113;-84
2022/04/17 04:18:06;;;;;;;7.00;3.63;;;;;;;7.74;46.19;101209.06;5024860;28;20112;-83
2022/04/17 04:20:31;;;;;;;6.37;2.33;;;;;;;7.53;46.13;101200.06;5022175;28;20116;-83
2022/04/17 04:22:57;;;;;;;5.78;3.00;;;;;;;7.27;46.21;101209.03;5006531;28;20263;-83
2022/04/17 04:25:22;;;;;;;23.63;3.97;;;;;;;7.33;46.36;101210.91;5005834;28;20053;-84
2022/04/17 04:30:35;;;;;;;9.80;3.63;;;;;;;7.57;46.22;101193.19;4976600;28;20504;-83
2022/04/17 04:33:01;;;;;;;7.40;3.00;;;;;;;7.58;45.60;101194.03;5006611;28;20034;-83
2022/04/17 04:35:26;;;;;;;8.30;2.93;;;;;;;7.73;46.30;101188.38;5005258;28;20607;-84
2022/04/17 04:37:51;;;;;;;5.45;2.58;;;;;;;7.74;45.54;101179.19;5006814;28;20274;-84
2022/04/17 04:40:18;;;;;;;6.18;2.33;;;;;;;7.69;45.33;101182.53;5005635;28;20028;-84
2022/04/17 04:42:43;;;;;;;5.07;2.20;;;;;;;7.70;46.11;101183.38;5005552;28;20575;-83
2022/04/17 04:47:53;;;;;;;4.60;2.00;;;;;;;7.24;46.63;101196.75;5004609;28;20153;-83
2022/04/17 04:50:18;;;;;;;6.53;2.87;;;;;;;7.34;46.29;101202.56;5008767;28;20046;-83
2022/04/17 04:52:43;;;;;;;10.20;2.83;;;;;;;7.35;46.82;101198.81;5024547;28;20259;-83
2022/04/17 04:55:09;;;;;;;5.15;2.05;;;;;;;7.38;46.62;101191.31;5007755;28;20496;-83
2022/04/17 04:57:37;;;;;;;10.88;3.08;;;;;;;7.42;46.99;101193.41;5026052;28;20045;-83
2022/04/17 05:00:07;;;;;;;7.13;2.75;;;;;;;7.64;47.36;101195.06;5024139;28;20503;-84
2022/04/17 05:02:34;;;;;;;5.20;2.40;;;;;;;7.70;47.39;101205.09;5014707;28;20041;-82
2022/04/17 05:04:59;;;;;;;7.13;3.47;;;;;;;7.72;46.33;101194.84;5003860;28;20042;-83
2022/04/17 05:07:25;;;;;;;4.85;2.17;;;;;;;7.76;46.69;101197.97;5013670;28;20029;-84
2022/04/17 05:09:50;;;;;;;6.72;2.47;;;;;;;7.66;45.88;101198.41;5024209;28;20085;-83
2022/04/17 05:12:15;;;;;;;5.20;2.75;;;;;;;7.80;45.70;101194.63;5024127;28;20380;-83
2022/04/17 05:14:45;;;;;;;4.17;2.03;;;;;;;7.49;46.62;101187.97;5024000;28;20044;-84
2022/04/17 05:17:10;;;;;;;8.05;2.47;;;;;;;7.46;46.78;101193.81;5024237;28;20262;-84
2022/04/17 05:19:38;;;;;;;8.75;2.35;;;;;;;7.58;46.69;101192.16;5026462;28;20372;-83
2022/04/17 05:22:10;;;;;;;6.18;2.60;;;;;;;7.52;46.75;101203.84;5006534;28;20041;-83
2022/04/17 05:24:35;;;;;;;4.85;2.03;;;;;;;7.65;46.65;101202.16;5005725;28;20026;-83
2022/04/17 05:27:01;;;;;;;8.07;3.08;;;;;;;7.58;46.88;101200.31;5004298;28;20036;-83
2022/04/17 05:29:26;;;;;;;4.00;2.08;;;;;;;7.76;47.05;101208.84;5005504;28;20026;-83
2022/04/17 05:31:52;;;;;;;4.25;1.77;;;;;;;7.75;46.63;101201.75;5014283;28;20642;-84
2022/04/17 05:34:17;;;;;;;6.97;3.05;;;;;;;7.76;46.29;101203.41;5005181;28;20030;-84
2022/04/17 05:36:42;;;;;;;4.67;2.23;;;;;;;7.85;46.11;101201.31;4988358;28;20127;-83
2022/04/17 05:39:08;;;;;;;5.07;3.05;;;;;;;7.78;46.74;101199.44;5002552;28;20638;-83
2022/04/17 05:41:34;;;;;;;5.57;2.22;;;;;;;8.00;46.78;101209.22;5018323;28;20037;-83
2022/04/17 05:44:00;;;;;;;6.20;2.05;;;;;;;8.12;46.23;101206.69;5023740;28;20025;-83
2022/04/17 05:46:30;;;;;;;6.07;2.17;;;;;;;8.08;46.24;101211.72;5023797;28;20037;-83
2022/04/17 05:48:57;;;;;;;5.25;1.95;;;;;;;8.06;45.99;101211.94;5024639;28;20040;-83
2022/04/17 05:51:23;;;;;;;6.13;2.00;;;;;;;7.93;46.40;101209.25;5023756;28;20421;-83
2022/04/17 05:53:48;;;;;;;4.28;2.10;;;;;;;7.88;46.83;101207.16;5025950;28;20026;-84
2022/04/17 05:58:58;;;;;;;4.50;2.08;;;;;;;8.18;45.78;101197.69;5022793;28;20040;-81
2022/04/17 06:01:24;;;;;;;7.85;2.50;;;;;;;8.12;45.83;101198.53;5011070;28;20045;-83
2022/04/17 06:03:52;;;;;;;5.07;1.98;;;;;;;7.99;46.42;101197.53;5005065;28;20037;-83
2022/04/17 06:06:18;;;;;;;4.50;1.92;;;;;;;8.09;45.42;101196.25;5004147;28;20060;-82
2022/04/17 06:08:47;;;;;;;4.57;2.13;;;;;;;8.08;45.60;101203.56;5023029;28;20153;-83
2022/04/17 06:11:13;;;;;;;5.00;1.85;;;;;;;8.06;45.47;101201.06;5014621;28;20042;-84
2022/04/17 06:13:38;;;;;;;6.72;3.00;;;;;;;8.35;45.39;101191.78;5003609;28;20068;-83
2022/04/17 06:16:04;;;;;;;4.82;2.30;;;;;;;8.65;45.38;101199.41;5005018;28;20026;-84
2022/04/17 06:18:29;;;;;;;4.40;2.17;;;;;;;8.55;44.73;101209.88;5003106;28;20484;-83
2022/04/17 06:20:55;;;;;;;5.55;1.92;;;;;;;8.29;45.21;101191.59;5011955;28;20060;-83
2022/04/17 06:23:21;;;;;;;3.88;2.08;;;;;;;8.34;45.29;101193.66;5023874;28;20026;-83
2022/04/17 06:25:46;;;;;;;5.97;2.20;;;;;;;8.43;45.29;101199.69;5024150;28;20029;-83
2022/04/17 06:28:11;;;;;;;6.53;2.40;;;;;;;8.51;45.32;101198.63;5024614;28;20022;-83
2022/04/17 06:30:37;;;;;;;4.97;1.90;;;;;;;8.65;44.84;101204.84;5023130;28;20259;-83
2022/04/17 06:33:02;;;;;;;4.55;2.00;;;;;;;8.71;45.00;101204.00;5009373;28;20030;-81
2022/04/17 06:35:27;;;;;;;4.22;1.90;;;;;;;8.87;44.59;101207.25;5003234;28;20026;-81
2022/04/17 06:38:01;;;;;;;6.47;2.63;;;;;;;8.79;44.93;101204.81;5005307;28;20088;-82
2022/04/17 06:40:32;;;;;;;5.03;2.00;;;;;;;8.91;44.58;101203.03;5002974;28;20190;-83
2022/04/17 06:43:05;;;;;;;7.30;2.03;;;;;;;9.07;44.49;101195.44;5004616;28;20084;-82
2022/04/17 06:45:31;;;;;;;6.47;2.63;;;;;;;9.08;44.10;101194.38;5004818;28;20061;-84
2022/04/17 06:47:57;;;;;;;2.35;1.38;;;;;;;9.22;44.30;101195.09;5002837;28;20037;-83
2022/04/17 06:50:23;;;;;;;3.25;2.13;;;;;;;9.05;44.15;101186.66;5007593;28;20029;-83
2022/04/17 06:52:49;;;;;;;6.57;2.67;;;;;;;9.03;44.09;101186.84;5022978;28;20025;-82
2022/04/17 06:55:15;;;;;;;4.25;2.15;;;;;;;9.04;44.58;101183.09;5024252;28;20461;-83
2022/04/17 06:57:46;;;;;;;4.65;2.08;;;;;;;9.16;44.38;101177.78;5022805;28;20112;-84
2022/04/17 07:00:12;;;;;;;6.07;2.45;;;;;;;9.19;44.29;101193.66;5022708;28;20455;-83
2022/04/17 07:02:38;;;;;;;2.05;1.45;;;;;;;9.39;44.03;101198.13;5003944;28;20037;-83
2022/04/17 07:05:05;;;;;;;14.07;2.47;;;;;;;9.22;43.48;101192.38;5002722;28;20056;-83
2022/04/17 07:07:31;;;;;;;4.30;2.70;;;;;;;9.30;43.76;101188.56;5013296;28;20116;-83
2022/04/17 07:09:56;;;;;;;4.18;2.05;;;;;;;9.38;43.52;101196.44;5022808;28;20101;-84
2022/04/17 07:12:21;;;;;;;5.63;2.15;;;;;;;9.44;43.37;101190.13;5006139;28;20091;-84
2022/04/17 07:14:47;;;;;;;3.65;2.15;;;;;;;9.44;43.32;101184.69;5022815;28;20088;-84
2022/04/17 07:17:13;;;;;;;4.30;1.95;;;;;;;9.50;43.68;101191.13;5023946;28;20033;-84
2022/04/17 07:19:39;;;;;;;4.63;2.08;;;;;;;9.61;43.19;101178.69;5023919;28;20041;-84
2022/04/17 07:22:04;;;;;;;6.60;2.80;;;;;;;9.71;43.21;101171.88;5022507;28;20029;-83
2022/04/17 07:24:29;;;;;;;6.05;2.28;;;;;;;9.76;43.48;101169.31;5024769;28;20030;-83
2022/04/17 07:26:56;;;;;;;7.97;2.50;;;;;;;9.65;42.85;101162.72;5022351;28;20036;-83
2022/04/17 07:29:24;;;;;;;5.22;2.70;;;;;;;9.57;43.01;101155.69;5026456;28;20088;-83
2022/04/17 07:31:53;;;;;;;5.38;2.35;;;;;;;9.70;42.93;101154.72;5019764;28;20057;-83
2022/04/17 07:34:19;;;;;;;4.28;2.33;;;;;;;9.70;42.82;101149.28;5007918;28;20026;-84
2022/04/17 07:36:57;;;;;;;5.97;2.08;;;;;;;9.80;43.15;101146.84;5007045;28;20057;-83
2022/04/17 07:39:23;;;;;;;5.25;1.75;;;;;;;9.84;43.07;101154.59;5006855;28;20038;-84
2022/04/17 07:41:48;;;;;;;4.97;2.55;;;;;;;9.81;42.71;101153.97;5007159;28;20523;-83
2022/04/17 07:44:14;;;;;;;5.82;2.67;;;;;;;9.73;42.55;101148.81;5005271;28;20037;-83
2022/04/17 07:46:40;;;;;;;4.05;2.13;;;;;;;9.80;42.29;101154.19;5007078;28;20687;-81
2022/04/17 07:49:06;;;;;;;4.25;2.10;;;;;;;9.83;42.51;101148.28;5005434;28;20046;-82
2022/04/17 07:51:32;;;;;;;5.70;2.20;;;;;;;10.02;42.59;101148.31;5008465;28;20053;-82
2022/04/17 07:53:57;;;;;;;3.25;2.33;;;;;;;10.02;42.64;101151.03;5006154;28;20028;-83
2022/04/17 07:56:22;;;;;;;5.20;2.67;;;;;;;10.13;42.81;101149.41;5005625;28;20022;-83
2022/04/17 07:58:48;;;;;;;8.63;3.20;;;;;;;10.28;42.45;101149.88;5006971;28;20268;-81
2022/04/17 08:01:15;;;;;;;13.25;1.85;;;;;;;10.16;42.03;101147.09;5006284;28;20038;-83
2022/04/17 08:06:09;;;;;;;6.68;2.10;;;;;;;10.21;42.06;101157.28;5004527;28;20476;-81
2022/04/17 08:08:35;;;;;;;3.80;1.60;;;;;;;10.32;42.40;101155.72;5011441;28;20477;-82
2022/04/17 08:11:04;;;;;;;4.47;2.15;;;;;;;10.47;43.03;101146.31;5004599;28;20500;-83
2022/04/17 08:13:30;;;;;;;4.68;2.47;;;;;;;10.60;42.32;101148.88;5003947;28;20492;-83
2022/04/17 08:15:56;;;;;;;5.80;3.03;;;;;;;10.64;42.09;101151.16;5006447;28;20479;-83
2022/04/17 08:18:21;;;;;;;4.53;2.25;;;;;;;10.72;41.10;101148.06;5005143;28;20026;-83
2022/04/17 08:20:47;;;;;;;4.18;1.55;;;;;;;10.90;41.49;101149.09;5006884;28;20026;-83
2022/04/17 08:23:12;;;;;;;4.28;2.08;;;;;;;10.88;40.75;101145.78;5005320;28;20034;-83
2022/04/17 08:25:38;;;;;;;7.82;2.03;;;;;;;10.91;40.68;101145.28;5006847;28;20468;-82
2022/04/17 08:30:49;;;;;;;3.97;1.83;;;;;;;11.19;41.30;101131.00;5007619;28;20577;-83
2022/04/17 08:33:14;;;;;;;5.88;2.78;;;;;;;11.31;40.86;101139.19;5009228;28;20125;-83
2022/04/17 08:35:40;;;;;;;7.93;2.50;;;;;;;11.42;40.45;101133.97;5005297;28;20113;-83
2022/04/17 08:38:05;;;;;;;4.05;2.20;;;;;;;11.39;40.93;101146.19;5006349;28;20034;-83
2022/04/17 08:40:31;;;;;;;4.90;1.90;;;;;;;11.54;40.72;101143.00;4990275;28;20029;-84
2022/04/17 08:42:57;;;;;;;5.88;1.80;;;;;;;11.61;40.55;101136.59;5015742;28;20033;-84
2022/04/17 08:45:23;;;;;;;5.25;1.92;;;;;;;11.67;40.48;101135.66;5004475;28;20038;-84
2022/04/17 08:47:50;;;;;;;4.10;2.13;;;;;;;11.71;40.10;101130.53;5002396;28;20577;-83
2022/04/17 08:50:17;;;;;;;4.53;1.65;;;;;;;11.83;39.54;101125.06;5004512;28;20512;-84
2022/04/17 08:52:47;;;;;;;3.70;2.08;;;;;;;11.93;40.16;101117.09;5004746;28;20026;-84
2022/04/17 08:55:13;;;;;;;2.97;2.08;;;;;;;11.93;39.93;101122.53;5006056;28;20038;-84
2022/04/17 08:57:39;;;;;;;2.83;1.63;;;;;;;11.92;39.83;101118.13;4986850;28;20029;-83
2022/04/17 09:00:08;;;;;;;4.38;1.83;;;;;;;12.00;39.30;101109.56;5005888;28;20025;-84
2022/04/17 09:02:37;;;;;;;3.60;1.55;;;;;;;12.01;39.80;101105.78;4994938;28;20076;-84
2022/04/17 09:05:07;;;;;;;4.20;2.50;;;;;;;11.88;37.52;101108.75;5005221;28;20298;-81
2022/04/17 09:07:40;;;;;;;3.97;2.00;;;;;;;12.09;40.01;101104.56;5014155;28;20026;-84
2022/04/17 09:10:07;;;;;;;4.00;1.87;;;;;;;12.18;39.62;101102.31;5021734;28;20041;-84
2022/04/17 09:12:32;;;;;;;4.50;1.70;;;;;;;12.32;39.19;101100.13;5025465;28;20087;-84
2022/04/17 09:14:58;;;;;;;2.58;1.25;;;;;;;12.46;37.72;101095.19;5023774;28;20029;-83
2022/04/17 09:17:30;;;;;;;6.57;1.60;;;;;;;12.60;37.78;101097.63;5025327;28;20030;-83
2022/04/17 09:19:56;;;;;;;4.40;2.05;;;;;;;12.75;37.42;101098.97;5024213;28;20278;-83
2022/04/17 09:22:21;;;;;;;3.38;1.75;;;;;;;12.83;37.26;101095.84;5024708;28;20055;-83
2022/04/17 09:24:46;;;;;;;4.33;1.87;;;;;;;12.95;36.77;101091.13;5024975;28;20030;-82
2022/04/17 09:27:11;;;;;;;3.30;1.33;;;;;;;12.96;37.06;101089.19;5024001;28;20333;-84
2022/04/17 09:29:38;;;;;;;3.25;1.70;;;;;;;13.04;37.19;101088.78;5025531;28;20742;-82
2022/04/17 09:32:06;;;;;;;3.08;1.80;;;;;;;13.13;36.42;101083.72;5015558;28;20148;-84
2022/04/17 09:34:49;;;;;;;6.03;1.75;;;;;;;13.08;35.43;101086.38;5005980;28;20041;-84
2022/04/17 09:37:15;;;;;;;4.65;1.42;;;;;;;13.34;36.72;101073.09;5004270;28;20037;-84
2022/04/17 09:39:41;;;;;;;2.60;1.33;;;;;;;13.60;36.63;101069.91;5005023;28;20018;-84
2022/04/17 09:42:08;;;;;;;2.42;1.40;;;;;;;13.61;36.26;101055.09;5022099;28;20487;-83
2022/04/17 09:44:35;;;;;;;3.22;1.77;;;;;;;13.46;35.08;101055.72;5023860;28;20021;-84
2022/04/17 09:47:01;;;;;;;3.50;1.60;;;;;;;13.80;35.96;101050.16;5024857;28;20057;-85
2022/04/17 09:49:41;;;;;;;5.13;1.48;;;;;;;14.05;36.31;101047.97;5023564;28;20029;-83
2022/04/17 09:52:07;;;;;;;6.07;2.08;;;;;;;14.14;35.07;101040.94;5013414;28;20406;-95
2022/04/17 09:54:32;;;;;;;2.95;1.48;;;;;;;14.09;34.52;101041.72;5009377;28;20053;-95
2022/04/17 09:56:58;;;;;;;2.85;1.63;;;;;;;14.26;35.17;101038.03;5013743;28;20566;-95
2022/04/17 09:59:23;;;;;;;4.65;1.27;;;;;;;14.51;35.22;101033.91;5010056;28;20049;-94
2022/04/17 10:01:51;;;;;;;4.25;1.23;;;;;;;14.68;34.07;101038.44;5009531;28;20097;-93
2022/04/17 10:04:19;;;;;;;3.72;1.30;;;;;;;14.87;34.75;101029.84;5004801;28;20050;-83
2022/04/17 10:06:46;;;;;;;5.00;1.60;;;;;;;14.92;33.97;101027.13;5006397;28;20041;-84
2022/04/17 10:09:13;;;;;;;4.22;1.42;;;;;;;14.97;32.46;101018.91;5010469;28;20036;-81
2022/04/17 10:11:39;;;;;;;2.92;1.27;;;;;;;15.09;32.67;101020.66;4992156;28;20045;-82
2022/04/17 10:14:06;;;;;;;8.73;1.40;;;;;;;15.23;32.98;101010.84;5004720;28;20033;-83
2022/04/17 10:16:34;;;;;;;2.67;1.27;;;;;;;15.31;31.39;101011.44;5003330;28;20491;-83
2022/04/17 10:19:10;;;;;;;3.00;1.33;;;;;;;15.39;30.28;100997.19;5003779;28;20050;-84
2022/04/17 10:21:35;;;;;;;3.83;1.23;;;;;;;15.43;30.96;100995.56;5008043;28;20798;-83
2022/04/17 10:24:02;;;;;;;4.50;1.83;;;;;;;15.61;31.27;100994.25;5008224;28;20022;-91
2022/04/17 10:26:32;;;;;;;3.17;1.55;;;;;;;15.67;29.98;100984.09;5005172;28;20116;-83
2022/04/17 10:29:00;;;;;;;6.20;1.13;;;;;;;15.65;31.69;100983.56;5003418;28;20022;-84
2022/04/17 10:31:38;;;;;;;3.13;1.33;;;;;;;15.81;31.92;100983.59;5013907;28;20029;-85
2022/04/17 10:34:37;;;;;;;4.03;1.58;;;;;;;15.94;31.42;100972.09;5005157;28;20069;-86
2022/04/17 10:37:21;;;;;;;2.08;1.20;;;;;;;15.95;29.38;100971.00;5002447;28;20583;-85
2022/04/17 10:39:50;;;;;;;16.95;4.00;;;;;;;16.08;33.00;100974.34;5004685;28;20034;-86
2022/04/17 10:42:15;;;;;;;7.70;2.25;;;;;;;16.26;32.62;100969.41;5003174;28;20052;-86
2022/04/17 10:44:41;;;;;;;3.33;1.05;;;;;;;16.01;31.10;100957.25;5004095;28;20267;-85
2022/04/17 10:47:20;;;;;;;2.55;1.10;;;;;;;16.24;30.62;100949.59;5004467;28;20025;-84
2022/04/17 10:49:53;;;;;;;2.33;1.00;;;;;;;16.39;29.61;100941.38;5003226;28;20377;-84
2022/04/17 10:52:31;;;;;;;3.28;1.20;;;;;;;16.53;29.85;100940.81;5003983;28;20590;-85
2022/04/17 10:55:11;;;;;;;4.20;1.42;;;;;;;16.67;30.45;100941.88;5003494;28;20026;-83
2022/04/17 10:57:47;;;;;;;1.65;1.20;;;;;;;16.67;28.40;100936.38;5003747;28;20034;-84
2022/04/17 11:00:32;;;;;;;6.18;1.25;;;;;;;16.77;29.26;100923.69;5004206;28;20026;-84
2022/04/17 11:03:01;;;;;;;3.55;1.10;;;;;;;16.88;29.91;100925.31;5002287;28;20041;-86
2022/04/17 11:08:24;;;;;;;1.88;1.15;;;;;;;17.15;29.46;100912.31;5023281;28;20121;-85
2022/04/17 11:10:53;;;;;;;3.58;0.90;;;;;;;17.26;29.53;100913.09;5019839;28;20018;-85
2022/04/17 11:13:18;;;;;;;2.70;1.17;;;;;;;17.30;30.09;100908.69;5005940;28;20026;-83
2022/04/17 11:15:52;;;;;;;4.70;1.45;;;;;;;17.15;28.78;100907.63;5006110;28;20026;-84
2022/04/17 11:18:23;;;;;;;3.53;1.30;;;;;;;17.09;28.53;100903.22;5007971;28;20032;-90
2022/04/17 11:20:52;;;;;;;3.45;1.52;;;;;;;17.07;27.83;100899.09;5006901;28;20120;-84
2022/04/17 11:23:49;;;;;;;3.05;1.30;;;;;;;17.02;27.56;100897.19;5008159;28;20472;-83
2022/04/17 11:26:15;;;;;;;2.33;1.20;;;;;;;17.15;28.42;100899.38;5006909;28;20077;-83
2022/04/17 11:28:40;;;;;;;2.67;1.17;;;;;;;17.36;27.65;100885.50;5005635;28;20029;-85
2022/04/17 11:31:06;;;;;;;2.03;0.80;;;;;;;17.52;27.67;100871.63;4988789;28;20030;-85
2022/04/17 11:33:32;;;;;;;4.05;1.75;;;;;;;17.71;28.22;100873.72;5005255;28;20021;-85
2022/04/17 11:35:58;;;;;;;2.78;1.30;;;;;;;17.85;27.80;100869.22;5007024;28;20389;-85
2022/04/17 11:38:23;;;;;;;2.72;0.80;;;;;;;17.91;28.61;100872.75;5006103;28;20102;-85
2022/04/17 11:40:49;;;;;;;4.18;0.90;;;;;;;18.09;27.39;100873.16;5005643;28;20164;-84
2022/04/17 11:43:17;;;;;;;3.38;0.93;;;;;;;18.22;28.46;100866.19;5007167;28;20018;-87
2022/04/17 11:45:45;;;;;;;1.65;0.98;;;;;;;18.28;27.29;100858.66;5002238;28;20141;-85
2022/04/17 11:48:18;;;;;;;5.75;1.52;;;;;;;18.43;28.06;100857.69;5006935;28;20050;-84
2022/04/17 11:50:44;;;;;;;1.77;0.60;;;;;;;18.37;28.51;100856.91;5004812;28;20554;-84
2022/04/17 11:53:14;;;;;;;1.40;0.93;;;;;;;18.46;26.83;100842.47;5007094;28;20018;-84
2022/04/17 11:55:41;;;;;;;3.05;1.10;;;;;;;18.48;26.41;100846.59;5006371;28;20022;-85
2022/04/17 11:58:12;;;;;;;3.28;1.38;;;;;;;18.61;27.11;100841.50;5006318;28;20153;-85
2022/04/17 12:00:39;;;;;;;2.35;1.27;;;;;;;18.69;25.11;100834.50;5006578;28;20496;-84